sensor_id;sensor_type;location;lat;lon;timestamp;pressure;altitude;pressure_sealevel;temperature;humidity
2841;BME280;53423;49.224;12.074;2023-05-15T00:01:20;97268.66;;;12.94;64.36
2841;BME280;53423;49.224;12.074;2023-05-15T00:03:48;97269.81;;;12.85;64.56
2841;BME280;53423;49.224;12.074;2023-05-15T00:06:19;97269.22;;;12.89;65.34
2841;BME280;53423;49.224;12.074;2023-05-15T00:08:47;97261.56;;;12.94;65.00
2841;BME280;53423;49.224;12.074;2023-05-15T00:11:14;97267.66;;;12.95;64.25
2841;BME280;53423;49.224;12.074;2023-05-15T00:13:42;97278.38;;;12.93;64.85
2841;BME280;53423;49.224;12.074;2023-05-15T00:16:10;97272.88;;;12.88;65.66
2841;BME280;53423;49.224;12.074;2023-05-15T00:18:39;97263.78;;;12.91;65.22
2841;BME280;53423;49.224;12.074;2023-05-15T00:21:07;97259.56;;;12.96;65.93
2841;BME280;53423;49.224;12.074;2023-05-15T00:23:36;97262.41;;;12.95;65.06
2841;BME280;53423;49.224;12.074;2023-05-15T00:26:04;97263.53;;;12.86;65.82
2841;BME280;53423;49.224;12.074;2023-05-15T00:28:32;97261.47;;;12.81;64.81
2841;BME280;53423;49.224;12.074;2023-05-15T00:31:00;97260.00;;;12.79;64.99
2841;BME280;53423;49.224;12.074;2023-05-15T00:33:28;97260.66;;;12.81;64.19
2841;BME280;53423;49.224;12.074;2023-05-15T00:35:56;97256.66;;;12.85;64.28
2841;BME280;53423;49.224;12.074;2023-05-15T00:38:24;97257.53;;;12.92;64.26
2841;BME280;53423;49.224;12.074;2023-05-15T00:40:54;97255.09;;;12.90;64.15
2841;BME280;53423;49.224;12.074;2023-05-15T00:43:22;97258.75;;;12.96;64.92
2841;BME280;53423;49.224;12.074;2023-05-15T00:45:52;97257.53;;;12.92;65.33
2841;BME280;53423;49.224;12.074;2023-05-15T00:48:21;97254.06;;;12.91;65.63
2841;BME280;53423;49.224;12.074;2023-05-15T00:50:50;97247.56;;;12.87;66.08
2841;BME280;53423;49.224;12.074;2023-05-15T00:53:18;97253.00;;;12.86;66.28
2841;BME280;53423;49.224;12.074;2023-05-15T00:55:48;97254.25;;;12.90;65.10
2841;BME280;53423;49.224;12.074;2023-05-15T00:58:20;97249.00;;;12.90;65.40
2841;BME280;53423;49.224;12.074;2023-05-15T01:00:49;97243.53;;;12.91;65.56
2841;BME280;53423;49.224;12.074;2023-05-15T01:03:17;97249.44;;;12.93;65.44
2841;BME280;53423;49.224;12.074;2023-05-15T01:05:46;97257.47;;;12.85;65.25
2841;BME280;53423;49.224;12.074;2023-05-15T01:08:19;97252.94;;;12.79;65.22
2841;BME280;53423;49.224;12.074;2023-05-15T01:10:48;97246.00;;;12.72;66.00
2841;BME280;53423;49.224;12.074;2023-05-15T01:13:19;97254.81;;;12.64;66.49
2841;BME280;53423;49.224;12.074;2023-05-15T01:15:48;97251.50;;;12.56;66.93
2841;BME280;53423;49.224;12.074;2023-05-15T01:18:16;97250.78;;;12.62;67.05
2841;BME280;53423;49.224;12.074;2023-05-15T01:21:04;97256.44;;;12.65;66.21
2841;BME280;53423;49.224;12.074;2023-05-15T01:23:42;97250.94;;;12.60;66.63
2841;BME280;53423;49.224;12.074;2023-05-15T01:29:29;97246.25;;;12.56;66.95
2841;BME280;53423;49.224;12.074;2023-05-15T01:32:03;97236.69;;;12.48;67.20
2841;BME280;53423;49.224;12.074;2023-05-15T01:34:39;97237.03;;;12.45;66.77
2841;BME280;53423;49.224;12.074;2023-05-15T01:37:13;97242.16;;;12.32;68.53
2841;BME280;53423;49.224;12.074;2023-05-15T01:39:44;97243.28;;;12.23;68.28
2841;BME280;53423;49.224;12.074;2023-05-15T01:42:18;97242.59;;;12.35;67.76
2841;BME280;53423;49.224;12.074;2023-05-15T01:44:52;97238.22;;;12.42;67.39
2841;BME280;53423;49.224;12.074;2023-05-15T01:47:30;97242.47;;;12.43;67.53
2841;BME280;53423;49.224;12.074;2023-05-15T01:50:00;97238.47;;;12.47;68.43
2841;BME280;53423;49.224;12.074;2023-05-15T01:52:31;97248.09;;;12.40;68.46
2841;BME280;53423;49.224;12.074;2023-05-15T01:55:01;97239.91;;;12.29;68.51
2841;BME280;53423;49.224;12.074;2023-05-15T01:57:30;97251.25;;;12.29;68.69
2841;BME280;53423;49.224;12.074;2023-05-15T02:00:00;97242.16;;;12.32;69.02
2841;BME280;53423;49.224;12.074;2023-05-15T02:02:29;97242.66;;;12.42;68.32
2841;BME280;53423;49.224;12.074;2023-05-15T02:04:58;97243.63;;;12.20;69.00
2841;BME280;53423;49.224;12.074;2023-05-15T02:07:26;97246.25;;;12.20;68.83
2841;BME280;53423;49.224;12.074;2023-05-15T02:09:55;97242.09;;;12.25;68.92
2841;BME280;53423;49.224;12.074;2023-05-15T02:12:24;97235.81;;;12.26;68.83
2841;BME280;53423;49.224;12.074;2023-05-15T02:14:54;97245.34;;;12.27;69.72
2841;BME280;53423;49.224;12.074;2023-05-15T02:17:26;97245.16;;;12.29;69.50
2841;BME280;53423;49.224;12.074;2023-05-15T02:19:55;97243.53;;;12.28;68.88
2841;BME280;53423;49.224;12.074;2023-05-15T02:22:23;97240.53;;;12.31;68.86
2841;BME280;53423;49.224;12.074;2023-05-15T02:24:51;97237.78;;;12.39;69.61
2841;BME280;53423;49.224;12.074;2023-05-15T02:27:21;97240.84;;;12.42;68.93
2841;BME280;53423;49.224;12.074;2023-05-15T02:30:04;97243.03;;;12.39;69.63
2841;BME280;53423;49.224;12.074;2023-05-15T02:32:41;97233.34;;;12.39;68.81
2841;BME280;53423;49.224;12.074;2023-05-15T02:35:17;97232.34;;;12.40;69.33
2841;BME280;53423;49.224;12.074;2023-05-15T02:37:48;97232.59;;;12.45;68.43
2841;BME280;53423;49.224;12.074;2023-05-15T02:40:19;97235.16;;;12.39;69.39
2841;BME280;53423;49.224;12.074;2023-05-15T02:42:51;97219.56;;;12.37;69.81
2841;BME280;53423;49.224;12.074;2023-05-15T02:45:21;97219.19;;;12.40;69.67
2841;BME280;53423;49.224;12.074;2023-05-15T02:47:52;97223.63;;;12.40;68.88
2841;BME280;53423;49.224;12.074;2023-05-15T02:50:21;97215.94;;;12.38;69.91
2841;BME280;53423;49.224;12.074;2023-05-15T02:52:49;97220.75;;;12.35;69.31
2841;BME280;53423;49.224;12.074;2023-05-15T02:55:17;97218.50;;;12.32;69.96
2841;BME280;53423;49.224;12.074;2023-05-15T02:57:45;97220.69;;;12.28;70.87
2841;BME280;53423;49.224;12.074;2023-05-15T03:00:13;97220.44;;;12.23;70.81
2841;BME280;53423;49.224;12.074;2023-05-15T03:02:41;97221.69;;;12.27;69.51
2841;BME280;53423;49.224;12.074;2023-05-15T03:05:11;97218.63;;;12.24;71.13
2841;BME280;53423;49.224;12.074;2023-05-15T03:07:39;97209.00;;;12.31;69.67
2841;BME280;53423;49.224;12.074;2023-05-15T03:10:08;97219.06;;;12.27;71.07
2841;BME280;53423;49.224;12.074;2023-05-15T03:12:36;97217.78;;;12.38;70.54
2841;BME280;53423;49.224;12.074;2023-05-15T03:15:05;97216.31;;;12.35;69.80
2841;BME280;53423;49.224;12.074;2023-05-15T03:17:33;97214.50;;;12.36;70.76
2841;BME280;53423;49.224;12.074;2023-05-15T03:20:01;97216.06;;;12.30;71.37
2841;BME280;53423;49.224;12.074;2023-05-15T03:22:31;97208.63;;;12.34;71.09
2841;BME280;53423;49.224;12.074;2023-05-15T03:24:59;97209.63;;;12.33;70.05
2841;BME280;53423;49.224;12.074;2023-05-15T03:27:28;97202.00;;;12.38;70.54
2841;BME280;53423;49.224;12.074;2023-05-15T03:29:56;97208.44;;;12.35;70.86
2841;BME280;53423;49.224;12.074;2023-05-15T03:32:24;97206.63;;;12.36;70.98
2841;BME280;53423;49.224;12.074;2023-05-15T03:34:52;97203.31;;;12.27;70.49
2841;BME280;53423;49.224;12.074;2023-05-15T03:37:20;97208.78;;;12.11;72.02
2841;BME280;53423;49.224;12.074;2023-05-15T03:39:49;97212.22;;;12.12;70.87
2841;BME280;53423;49.224;12.074;2023-05-15T03:42:17;97200.16;;;12.17;71.65
2841;BME280;53423;49.224;12.074;2023-05-15T03:44:49;97201.16;;;12.16;72.19
2841;BME280;53423;49.224;12.074;2023-05-15T03:47:17;97199.97;;;12.19;71.44
2841;BME280;53423;49.224;12.074;2023-05-15T03:49:45;97197.53;;;12.17;72.27
2841;BME280;53423;49.224;12.074;2023-05-15T03:52:13;97201.97;;;12.17;71.77
2841;BME280;53423;49.224;12.074;2023-05-15T03:54:41;97196.09;;;12.15;72.17
2841;BME280;53423;49.224;12.074;2023-05-15T03:57:11;97200.53;;;12.14;71.34
2841;BME280;53423;49.224;12.074;2023-05-15T03:59:39;97205.50;;;12.24;70.95
2841;BME280;53423;49.224;12.074;2023-05-15T04:02:07;97197.03;;;12.28;71.35
2841;BME280;53423;49.224;12.074;2023-05-15T04:04:35;97192.84;;;12.34;71.42
2841;BME280;53423;49.224;12.074;2023-05-15T04:07:04;97194.47;;;12.35;71.96
2841;BME280;53423;49.224;12.074;2023-05-15T04:09:32;97196.13;;;12.36;71.26
2841;BME280;53423;49.224;12.074;2023-05-15T04:12:00;97197.84;;;12.29;72.00
2841;BME280;53423;49.224;12.074;2023-05-15T04:14:29;97192.16;;;12.25;71.36
2841;BME280;53423;49.224;12.074;2023-05-15T04:16:57;97198.31;;;12.32;70.88
2841;BME280;53423;49.224;12.074;2023-05-15T04:19:25;97195.47;;;12.34;71.34
2841;BME280;53423;49.224;12.074;2023-05-15T04:21:53;97202.97;;;12.37;71.40
2841;BME280;53423;49.224;12.074;2023-05-15T04:24:21;97194.72;;;12.40;70.84
2841;BME280;53423;49.224;12.074;2023-05-15T04:26:49;97194.91;;;12.38;71.21
2841;BME280;53423;49.224;12.074;2023-05-15T04:29:17;97196.38;;;12.41;71.54
2841;BME280;53423;49.224;12.074;2023-05-15T04:31:46;97193.16;;;12.45;70.75
2841;BME280;53423;49.224;12.074;2023-05-15T04:34:14;97194.53;;;12.41;70.96
2841;BME280;53423;49.224;12.074;2023-05-15T04:36:42;97190.47;;;12.39;71.52
2841;BME280;53423;49.224;12.074;2023-05-15T04:39:10;97189.38;;;12.48;70.27
2841;BME280;53423;49.224;12.074;2023-05-15T04:41:38;97189.16;;;12.49;70.44
2841;BME280;53423;49.224;12.074;2023-05-15T04:44:06;97193.03;;;12.53;71.31
2841;BME280;53423;49.224;12.074;2023-05-15T04:46:34;97193.09;;;12.60;70.46
2841;BME280;53423;49.224;12.074;2023-05-15T04:49:04;97193.28;;;12.59;71.69
2841;BME280;53423;49.224;12.074;2023-05-15T04:51:32;97188.47;;;12.62;71.79
2841;BME280;53423;49.224;12.074;2023-05-15T04:54:00;97192.53;;;12.65;70.67
2841;BME280;53423;49.224;12.074;2023-05-15T04:56:28;97189.34;;;12.69;70.63
2841;BME280;53423;49.224;12.074;2023-05-15T04:58:56;97187.72;;;12.68;70.89
2841;BME280;53423;49.224;12.074;2023-05-15T05:01:24;97185.38;;;12.80;70.96
2841;BME280;53423;49.224;12.074;2023-05-15T05:03:52;97198.16;;;12.83;71.05
2841;BME280;53423;49.224;12.074;2023-05-15T05:06:22;97191.19;;;12.96;71.01
2841;BME280;53423;49.224;12.074;2023-05-15T05:08:50;97200.75;;;13.04;70.74
2841;BME280;53423;49.224;12.074;2023-05-15T05:11:18;97194.56;;;13.11;69.91
2841;BME280;53423;49.224;12.074;2023-05-15T05:13:48;97194.34;;;13.13;69.90
2841;BME280;53423;49.224;12.074;2023-05-15T05:16:16;97204.69;;;13.14;69.85
2841;BME280;53423;49.224;12.074;2023-05-15T05:18:44;97197.63;;;13.15;70.70
2841;BME280;53423;49.224;12.074;2023-05-15T05:21:12;97211.38;;;13.10;71.04
2841;BME280;53423;49.224;12.074;2023-05-15T05:23:41;97200.41;;;13.07;70.53
2841;BME280;53423;49.224;12.074;2023-05-15T05:26:09;97201.13;;;13.01;71.43
2841;BME280;53423;49.224;12.074;2023-05-15T05:28:37;97205.84;;;13.05;70.97
2841;BME280;53423;49.224;12.074;2023-05-15T05:31:06;97208.28;;;13.07;71.06
2841;BME280;53423;49.224;12.074;2023-05-15T05:33:33;97204.06;;;13.12;70.63
2841;BME280;53423;49.224;12.074;2023-05-15T05:36:01;97202.72;;;13.23;70.78
2841;BME280;53423;49.224;12.074;2023-05-15T05:38:30;97201.97;;;13.29;70.46
2841;BME280;53423;49.224;12.074;2023-05-15T05:41:00;97210.69;;;13.36;69.40
2841;BME280;53423;49.224;12.074;2023-05-15T05:43:30;97204.53;;;13.50;69.23
2841;BME280;53423;49.224;12.074;2023-05-15T05:45:58;97207.38;;;13.55;69.34
2841;BME280;53423;49.224;12.074;2023-05-15T05:48:26;97207.25;;;13.69;69.36
2841;BME280;53423;49.224;12.074;2023-05-15T05:50:54;97206.47;;;13.69;68.87
2841;BME280;53423;49.224;12.074;2023-05-15T05:53:22;97205.94;;;13.52;69.31
2841;BME280;53423;49.224;12.074;2023-05-15T05:55:50;97207.44;;;13.68;69.29
2841;BME280;53423;49.224;12.074;2023-05-15T05:58:19;97214.63;;;13.81;69.09
2841;BME280;53423;49.224;12.074;2023-05-15T06:00:52;97205.28;;;13.85;68.43
2841;BME280;53423;49.224;12.074;2023-05-15T06:03:20;97206.97;;;13.92;68.16
2841;BME280;53423;49.224;12.074;2023-05-15T06:05:48;97207.78;;;13.99;67.51
2841;BME280;53423;49.224;12.074;2023-05-15T06:08:16;97207.41;;;14.09;67.09
2841;BME280;53423;49.224;12.074;2023-05-15T06:10:45;97206.97;;;13.99;67.19
2841;BME280;53423;49.224;12.074;2023-05-15T06:13:13;97203.59;;;14.18;66.86
2841;BME280;53423;49.224;12.074;2023-05-15T06:15:42;97210.00;;;14.43;66.32
2841;BME280;53423;49.224;12.074;2023-05-15T06:18:11;97200.06;;;14.58;65.76
2841;BME280;53423;49.224;12.074;2023-05-15T06:20:39;97197.03;;;14.74;65.14
2841;BME280;53423;49.224;12.074;2023-05-15T06:23:08;97198.88;;;14.86;65.42
2841;BME280;53423;49.224;12.074;2023-05-15T06:25:36;97198.25;;;14.91;64.98
2841;BME280;53423;49.224;12.074;2023-05-15T06:28:04;97204.56;;;14.90;64.72
2841;BME280;53423;49.224;12.074;2023-05-15T06:30:32;97194.78;;;14.97;64.43
2841;BME280;53423;49.224;12.074;2023-05-15T06:33:02;97202.31;;;15.07;64.55
2841;BME280;53423;49.224;12.074;2023-05-15T06:35:29;97198.44;;;15.22;64.52
2841;BME280;53423;49.224;12.074;2023-05-15T06:37:57;97199.84;;;15.38;64.37
2841;BME280;53423;49.224;12.074;2023-05-15T06:40:25;97198.44;;;15.42;64.13
2841;BME280;53423;49.224;12.074;2023-05-15T06:42:54;97197.59;;;15.48;62.80
2841;BME280;53423;49.224;12.074;2023-05-15T06:45:21;97206.97;;;15.44;62.58
2841;BME280;53423;49.224;12.074;2023-05-15T06:47:50;97210.81;;;15.41;62.90
2841;BME280;53423;49.224;12.074;2023-05-15T06:50:19;97203.28;;;15.38;62.74
2841;BME280;53423;49.224;12.074;2023-05-15T06:52:47;97200.03;;;15.49;61.98
2841;BME280;53423;49.224;12.074;2023-05-15T06:55:15;97213.03;;;15.64;61.67
2841;BME280;53423;49.224;12.074;2023-05-15T06:57:43;97206.47;;;15.86;62.14
2841;BME280;53423;49.224;12.074;2023-05-15T07:00:12;97201.91;;;16.06;61.06
2841;BME280;53423;49.224;12.074;2023-05-15T07:02:40;97206.84;;;16.34;60.78
2841;BME280;53423;49.224;12.074;2023-05-15T07:05:09;97195.09;;;16.61;59.38
2841;BME280;53423;49.224;12.074;2023-05-15T07:07:39;97198.81;;;16.84;58.79
2841;BME280;53423;49.224;12.074;2023-05-15T07:10:10;97188.41;;;17.07;57.92
2841;BME280;53423;49.224;12.074;2023-05-15T07:12:37;97186.88;;;17.42;58.47
2841;BME280;53423;49.224;12.074;2023-05-15T07:15:06;97192.88;;;17.92;56.87
2841;BME280;53423;49.224;12.074;2023-05-15T07:17:34;97192.63;;;18.12;56.27
2841;BME280;53423;49.224;12.074;2023-05-15T07:20:03;97199.06;;;18.34;55.30
2841;BME280;53423;49.224;12.074;2023-05-15T07:22:32;97200.22;;;18.08;55.13
2841;BME280;53423;49.224;12.074;2023-05-15T07:25:15;97204.66;;;18.14;55.59
2841;BME280;53423;49.224;12.074;2023-05-15T07:27:43;97200.72;;;18.17;54.98
2841;BME280;53423;49.224;12.074;2023-05-15T07:30:11;97205.50;;;18.26;54.25
2841;BME280;53423;49.224;12.074;2023-05-15T07:32:39;97198.28;;;18.63;53.78
2841;BME280;53423;49.224;12.074;2023-05-15T07:35:08;97191.13;;;19.39;51.79
2841;BME280;53423;49.224;12.074;2023-05-15T07:37:37;97185.06;;;20.30;50.57
2841;BME280;53423;49.224;12.074;2023-05-15T07:40:05;97176.38;;;21.45;47.47
2841;BME280;53423;49.224;12.074;2023-05-15T07:42:35;97178.66;;;22.61;44.72
2841;BME280;53423;49.224;12.074;2023-05-15T07:45:06;97175.00;;;22.72;42.35
2841;BME280;53423;49.224;12.074;2023-05-15T07:47:34;97176.97;;;22.55;42.41
2841;BME280;53423;49.224;12.074;2023-05-15T07:50:03;97178.41;;;22.63;41.72
2841;BME280;53423;49.224;12.074;2023-05-15T07:52:31;97174.31;;;22.34;43.10
2841;BME280;53423;49.224;12.074;2023-05-15T07:54:58;97169.31;;;23.64;40.72
2841;BME280;53423;49.224;12.074;2023-05-15T07:57:26;97169.34;;;24.25;39.34
2841;BME280;53423;49.224;12.074;2023-05-15T07:59:56;97162.22;;;25.26;37.83
2841;BME280;53423;49.224;12.074;2023-05-15T08:02:24;97162.66;;;25.84;36.14
2841;BME280;53423;49.224;12.074;2023-05-15T08:04:53;97162.03;;;26.12;36.34
2841;BME280;53423;49.224;12.074;2023-05-15T08:07:20;97156.38;;;26.18;35.01
2841;BME280;53423;49.224;12.074;2023-05-15T08:09:48;97157.81;;;27.27;34.33
2841;BME280;53423;49.224;12.074;2023-05-15T08:12:18;97160.06;;;27.15;33.91
2841;BME280;53423;49.224;12.074;2023-05-15T08:14:48;97161.16;;;27.42;34.13
2841;BME280;53423;49.224;12.074;2023-05-15T08:17:17;97156.91;;;27.65;32.05
2841;BME280;53423;49.224;12.074;2023-05-15T08:19:46;97153.13;;;27.66;31.91
2841;BME280;53423;49.224;12.074;2023-05-15T08:22:17;97150.19;;;28.09;32.82
2841;BME280;53423;49.224;12.074;2023-05-15T08:24:45;97150.94;;;28.57;31.30
2841;BME280;53423;49.224;12.074;2023-05-15T08:27:13;97145.59;;;27.91;31.59
2841;BME280;53423;49.224;12.074;2023-05-15T08:29:41;97157.75;;;27.03;33.10
2841;BME280;53423;49.224;12.074;2023-05-15T08:32:09;97152.22;;;25.82;35.13
2841;BME280;53423;49.224;12.074;2023-05-15T08:34:38;97144.50;;;25.50;36.04
2841;BME280;53423;49.224;12.074;2023-05-15T08:37:06;97148.00;;;25.21;37.87
2841;BME280;53423;49.224;12.074;2023-05-15T08:39:34;97156.06;;;24.81;38.41
2841;BME280;53423;49.224;12.074;2023-05-15T08:42:07;97149.78;;;25.81;37.26
2841;BME280;53423;49.224;12.074;2023-05-15T08:44:36;97145.44;;;26.48;34.34
2841;BME280;53423;49.224;12.074;2023-05-15T08:47:05;97145.59;;;27.06;32.68
2841;BME280;53423;49.224;12.074;2023-05-15T08:49:38;97144.47;;;27.45;31.96
2841;BME280;53423;49.224;12.074;2023-05-15T08:52:13;97142.19;;;28.04;31.05
2841;BME280;53423;49.224;12.074;2023-05-15T08:54:41;97147.31;;;27.54;31.42
2841;BME280;53423;49.224;12.074;2023-05-15T08:57:13;97142.78;;;26.87;32.70
2841;BME280;53423;49.224;12.074;2023-05-15T08:59:42;97141.38;;;26.56;32.86
2841;BME280;53423;49.224;12.074;2023-05-15T09:02:11;97140.34;;;26.47;33.07
2841;BME280;53423;49.224;12.074;2023-05-15T09:04:39;97133.50;;;25.52;33.20
2841;BME280;53423;49.224;12.074;2023-05-15T09:07:08;97127.09;;;25.18;36.05
2841;BME280;53423;49.224;12.074;2023-05-15T09:09:38;97132.69;;;24.46;37.35
2841;BME280;53423;49.224;12.074;2023-05-15T09:12:09;97127.94;;;23.34;38.49
2841;BME280;53423;49.224;12.074;2023-05-15T09:14:37;97135.19;;;22.71;40.51
2841;BME280;53423;49.224;12.074;2023-05-15T09:17:05;97137.38;;;22.52;43.22
2841;BME280;53423;49.224;12.074;2023-05-15T09:19:34;97141.56;;;21.95;42.68
2841;BME280;53423;49.224;12.074;2023-05-15T09:22:14;97139.44;;;21.75;44.14
2841;BME280;53423;49.224;12.074;2023-05-15T09:24:44;97137.13;;;21.24;46.71
2841;BME280;53423;49.224;12.074;2023-05-15T09:27:13;97136.41;;;20.95;48.25
2841;BME280;53423;49.224;12.074;2023-05-15T09:29:41;97144.41;;;20.62;48.76
2841;BME280;53423;49.224;12.074;2023-05-15T09:32:11;97141.88;;;20.39;50.36
2841;BME280;53423;49.224;12.074;2023-05-15T09:34:40;97142.53;;;20.07;50.42
2841;BME280;53423;49.224;12.074;2023-05-15T09:37:09;97143.09;;;19.81;51.05
2841;BME280;53423;49.224;12.074;2023-05-15T09:39:40;97152.97;;;19.68;51.19
2841;BME280;53423;49.224;12.074;2023-05-15T09:42:13;97149.88;;;19.37;51.54
2841;BME280;53423;49.224;12.074;2023-05-15T09:44:42;97150.44;;;19.39;52.24
2841;BME280;53423;49.224;12.074;2023-05-15T09:47:11;97144.47;;;19.32;53.43
2841;BME280;53423;49.224;12.074;2023-05-15T09:49:42;97152.03;;;18.94;52.37
2841;BME280;53423;49.224;12.074;2023-05-15T09:52:10;97139.69;;;18.88;51.03
2841;BME280;53423;49.224;12.074;2023-05-15T09:54:38;97149.84;;;18.91;52.42
2841;BME280;53423;49.224;12.074;2023-05-15T09:57:08;97155.03;;;18.97;51.78
2841;BME280;53423;49.224;12.074;2023-05-15T09:59:43;97154.91;;;19.04;53.76
2841;BME280;53423;49.224;12.074;2023-05-15T10:02:13;97150.31;;;18.88;53.97
2841;BME280;53423;49.224;12.074;2023-05-15T10:04:41;97144.63;;;18.73;55.04
2841;BME280;53423;49.224;12.074;2023-05-15T10:07:09;97139.16;;;18.26;54.48
2841;BME280;53423;49.224;12.074;2023-05-15T10:09:38;97133.59;;;18.46;53.76
2841;BME280;53423;49.224;12.074;2023-05-15T10:12:07;97135.25;;;18.70;53.30
2841;BME280;53423;49.224;12.074;2023-05-15T10:14:38;97129.91;;;19.86;52.51
2841;BME280;53423;49.224;12.074;2023-05-15T10:17:08;97127.78;;;22.03;48.84
2841;BME280;53423;49.224;12.074;2023-05-15T10:19:36;97119.19;;;24.01;42.70
2841;BME280;53423;49.224;12.074;2023-05-15T10:22:22;97119.25;;;25.56;38.95
2841;BME280;53423;49.224;12.074;2023-05-15T10:24:59;97127.34;;;27.83;31.57
2841;BME280;53423;49.224;12.074;2023-05-15T10:27:29;97121.97;;;28.81;30.84
2841;BME280;53423;49.224;12.074;2023-05-15T10:30:00;97110.44;;;29.27;28.76
2841;BME280;53423;49.224;12.074;2023-05-15T10:32:31;97097.25;;;30.91;26.89
2841;BME280;53423;49.224;12.074;2023-05-15T10:35:01;97091.84;;;30.06;29.50
2841;BME280;53423;49.224;12.074;2023-05-15T10:37:30;97096.50;;;28.13;31.37
2841;BME280;53423;49.224;12.074;2023-05-15T10:39:59;97092.56;;;25.85;36.75
2841;BME280;53423;49.224;12.074;2023-05-15T10:42:28;97102.16;;;24.77;37.77
2841;BME280;53423;49.224;12.074;2023-05-15T10:44:57;97097.75;;;24.06;38.67
2841;BME280;53423;49.224;12.074;2023-05-15T10:47:33;97106.97;;;23.26;43.82
2841;BME280;53423;49.224;12.074;2023-05-15T10:50:03;97099.72;;;22.85;43.64
2841;BME280;53423;49.224;12.074;2023-05-15T10:52:31;97104.56;;;22.03;44.83
2841;BME280;53423;49.224;12.074;2023-05-15T10:54:59;97100.16;;;21.71;45.52
2841;BME280;53423;49.224;12.074;2023-05-15T10:57:29;97092.19;;;21.33;47.61
2841;BME280;53423;49.224;12.074;2023-05-15T10:59:57;97090.94;;;21.19;48.66
2841;BME280;53423;49.224;12.074;2023-05-15T11:02:27;97092.22;;;21.54;49.04
2841;BME280;53423;49.224;12.074;2023-05-15T11:04:59;97086.28;;;22.44;45.55
2841;BME280;53423;49.224;12.074;2023-05-15T11:07:27;97075.34;;;23.60;43.63
2841;BME280;53423;49.224;12.074;2023-05-15T11:09:55;97071.91;;;23.70;41.53
2841;BME280;53423;49.224;12.074;2023-05-15T11:12:23;97066.69;;;24.15;41.37
2841;BME280;53423;49.224;12.074;2023-05-15T11:15:16;97057.72;;;25.70;39.84
2841;BME280;53423;49.224;12.074;2023-05-15T11:18:01;97056.19;;;27.61;35.75
2841;BME280;53423;49.224;12.074;2023-05-15T11:20:37;97044.44;;;27.75;35.90
2841;BME280;53423;49.224;12.074;2023-05-15T11:23:05;97039.53;;;28.20;35.99
2841;BME280;53423;49.224;12.074;2023-05-15T11:25:35;97048.22;;;29.45;34.11
2841;BME280;53423;49.224;12.074;2023-05-15T11:28:03;97041.34;;;29.66;29.25
2841;BME280;53423;49.224;12.074;2023-05-15T11:30:34;97048.75;;;29.01;30.27
2841;BME280;53423;49.224;12.074;2023-05-15T11:33:04;97066.19;;;28.02;34.10
2841;BME280;53423;49.224;12.074;2023-05-15T11:35:37;97083.31;;;26.50;34.41
2841;BME280;53423;49.224;12.074;2023-05-15T11:38:11;97088.84;;;23.90;37.82
2841;BME280;53423;49.224;12.074;2023-05-15T11:40:43;97077.44;;;23.06;40.29
2841;BME280;53423;49.224;12.074;2023-05-15T11:43:19;97091.41;;;21.97;40.96
2841;BME280;53423;49.224;12.074;2023-05-15T11:45:50;97077.84;;;21.55;42.54
2841;BME280;53423;49.224;12.074;2023-05-15T11:48:18;97066.72;;;21.04;42.93
2841;BME280;53423;49.224;12.074;2023-05-15T11:50:48;97052.22;;;20.45;45.69
2841;BME280;53423;49.224;12.074;2023-05-15T11:53:19;97046.94;;;19.89;49.08
2841;BME280;53423;49.224;12.074;2023-05-15T11:55:51;97053.00;;;19.44;50.69
2841;BME280;53423;49.224;12.074;2023-05-15T11:58:21;97059.06;;;19.17;52.09
2841;BME280;53423;49.224;12.074;2023-05-15T12:00:50;97057.22;;;18.94;52.72
2841;BME280;53423;49.224;12.074;2023-05-15T12:03:23;97066.47;;;18.92;53.06
2841;BME280;53423;49.224;12.074;2023-05-15T12:05:53;97061.25;;;19.20;52.25
2841;BME280;53423;49.224;12.074;2023-05-15T12:08:30;97063.84;;;20.39;51.85
2841;BME280;53423;49.224;12.074;2023-05-15T12:10:59;97063.44;;;21.56;48.86
2841;BME280;53423;49.224;12.074;2023-05-15T12:13:28;97056.28;;;22.37;46.58
2841;BME280;53423;49.224;12.074;2023-05-15T12:15:57;97058.50;;;23.70;45.72
2841;BME280;53423;49.224;12.074;2023-05-15T12:18:25;97052.00;;;24.47;43.66
2841;BME280;53423;49.224;12.074;2023-05-15T12:20:55;97049.06;;;24.84;40.02
2841;BME280;53423;49.224;12.074;2023-05-15T12:23:24;97048.16;;;25.24;40.20
2841;BME280;53423;49.224;12.074;2023-05-15T12:25:54;97044.41;;;25.45;41.04
2841;BME280;53423;49.224;12.074;2023-05-15T12:28:25;97051.81;;;25.68;39.36
2841;BME280;53423;49.224;12.074;2023-05-15T12:30:53;97042.75;;;25.49;40.35
2841;BME280;53423;49.224;12.074;2023-05-15T12:33:22;97040.69;;;25.16;39.32
2841;BME280;53423;49.224;12.074;2023-05-15T12:35:53;97044.75;;;25.03;39.34
2841;BME280;53423;49.224;12.074;2023-05-15T12:38:28;97043.66;;;25.09;39.19
2841;BME280;53423;49.224;12.074;2023-05-15T12:40:56;97041.84;;;24.70;39.89
2841;BME280;53423;49.224;12.074;2023-05-15T12:43:25;97035.41;;;24.71;38.30
2841;BME280;53423;49.224;12.074;2023-05-15T12:45:53;97044.50;;;24.54;38.95
2841;BME280;53423;49.224;12.074;2023-05-15T12:48:22;97047.97;;;24.40;42.71
2841;BME280;53423;49.224;12.074;2023-05-15T12:50:50;97040.75;;;24.45;39.05
2841;BME280;53423;49.224;12.074;2023-05-15T12:53:20;97032.66;;;24.00;39.28
2841;BME280;53423;49.224;12.074;2023-05-15T12:55:49;97030.22;;;23.27;40.21
2841;BME280;53423;49.224;12.074;2023-05-15T12:58:17;97039.47;;;23.09;40.91
2841;BME280;53423;49.224;12.074;2023-05-15T13:00:46;97042.16;;;23.09;39.00
2841;BME280;53423;49.224;12.074;2023-05-15T13:03:18;97040.78;;;23.07;39.47
2841;BME280;53423;49.224;12.074;2023-05-15T13:05:47;97040.09;;;23.21;39.61
2841;BME280;53423;49.224;12.074;2023-05-15T13:08:18;97045.94;;;22.77;40.43
2841;BME280;53423;49.224;12.074;2023-05-15T13:10:46;97051.44;;;22.60;39.39
2841;BME280;53423;49.224;12.074;2023-05-15T13:13:15;97046.00;;;22.87;40.31
2841;BME280;53423;49.224;12.074;2023-05-15T13:15:44;97045.28;;;22.96;40.04